createdAt,value
2023-08-19T00:03:31.770Z,99.90
2023-08-19T00:08:35.548Z,99.90
2023-08-19T00:13:37.742Z,99.90
2023-08-19T00:18:39.807Z,99.90
2023-08-19T00:23:43.632Z,99.90
2023-08-19T00:28:45.738Z,99.90
2023-08-19T00:33:47.594Z,99.90
2023-08-19T00:38:53.204Z,99.90
2023-08-19T00:43:56.858Z,99.90
2023-08-19T00:48:58.973Z,99.90
2023-08-19T00:54:02.486Z,99.90
2023-08-19T00:59:04.890Z,99.90
2023-08-19T01:04:07.543Z,99.90
2023-08-19T01:09:21.789Z,99.90
2023-08-19T01:14:37.214Z,99.90
2023-08-19T01:19:42.875Z,99.90
2023-08-19T01:24:48.080Z,99.90
2023-08-19T01:29:50.147Z,99.90
2023-08-19T01:34:52.836Z,99.90
2023-08-19T01:39:59.176Z,99.90
2023-08-19T01:45:04.869Z,99.90
2023-08-19T01:50:08.519Z,99.90
2023-08-19T01:55:12.186Z,99.90
2023-08-19T02:00:14.443Z,99.90
2023-08-19T02:05:16.581Z,99.90
2023-08-19T02:10:20.237Z,99.90
2023-08-19T02:15:22.353Z,99.90
2023-08-19T02:20:24.473Z,99.90
2023-08-19T02:25:27.755Z,99.90
2023-08-19T02:30:29.767Z,99.90
2023-08-19T02:35:32.202Z,99.90
2023-08-19T02:40:35.714Z,99.90
2023-08-19T02:45:37.871Z,99.90
2023-08-19T02:50:40.106Z,99.90
2023-08-19T02:55:43.804Z,99.90
2023-08-19T03:00:49.049Z,99.90
2023-08-19T03:05:50.890Z,99.90
2023-08-19T03:10:54.697Z,99.90
2023-08-19T03:16:01.121Z,99.90
2023-08-19T03:21:03.339Z,99.90
2023-08-19T03:26:06.903Z,99.90
2023-08-19T03:31:11.994Z,99.90
2023-08-19T03:36:13.818Z,99.90
2023-08-19T03:41:17.442Z,99.90
2023-08-19T03:46:19.300Z,99.90
2023-08-19T03:51:21.135Z,99.90
2023-08-19T03:56:24.918Z,99.90
2023-08-19T04:01:27.231Z,99.90
2023-08-19T04:06:29.112Z,99.90
2023-08-19T04:11:32.473Z,99.90
2023-08-19T04:16:34.638Z,99.90
2023-08-19T04:21:36.269Z,99.90
2023-08-19T04:26:39.801Z,99.90
2023-08-19T04:31:42.454Z,99.90
2023-08-19T04:36:44.932Z,99.90
2023-08-19T04:41:48.445Z,99.90
2023-08-19T04:46:50.384Z,99.90
2023-08-19T04:51:52.394Z,99.90
2023-08-19T04:56:55.986Z,99.90
2023-08-19T05:01:57.757Z,99.90
2023-08-19T05:06:59.856Z,99.90
2023-08-19T05:12:03.428Z,99.90
2023-08-19T05:17:05.424Z,99.90
2023-08-19T05:22:08.130Z,99.90
2023-08-19T05:27:11.727Z,99.90
2023-08-19T05:32:14.018Z,99.90
2023-08-19T05:37:16.009Z,99.90
2023-08-19T05:42:19.455Z,99.90
2023-08-19T05:47:21.670Z,99.90
2023-08-19T05:52:23.715Z,99.90
2023-08-19T05:57:27.009Z,99.90
2023-08-19T06:02:29.062Z,99.90
2023-08-19T06:07:31.167Z,99.90
2023-08-19T06:18:24.513Z,99.90
2023-08-19T06:23:36.244Z,99.90
2023-08-19T06:28:42.136Z,99.90
2023-08-19T06:33:55.512Z,99.90
2023-08-19T06:39:06.794Z,99.90
2023-08-19T06:44:11.931Z,99.90
2023-08-19T06:49:14.720Z,99.90
2023-08-19T06:54:17.342Z,99.90
2023-08-19T06:59:26.352Z,99.90
2023-08-19T07:04:29.320Z,99.90
2023-08-19T07:09:31.930Z,99.90
2023-08-19T07:14:39.480Z,99.90
2023-08-19T07:19:42.346Z,99.90
2023-08-19T07:24:45.757Z,99.90
2023-08-19T07:29:53.434Z,99.90
2023-08-19T07:34:56.671Z,99.90
2023-08-19T07:39:59.467Z,99.90
2023-08-19T07:45:02.924Z,99.90
2023-08-19T07:50:05.365Z,99.60
2023-08-19T07:55:08.795Z,99.90
2023-08-19T08:00:13.536Z,99.90
2023-08-19T08:05:15.921Z,99.90
2023-08-19T08:10:18.140Z,99.90
2023-08-19T08:15:22.020Z,99.90
2023-08-19T08:20:23.897Z,99.90
2023-08-19T08:25:25.734Z,99.90
2023-08-19T08:30:29.477Z,99.80
2023-08-19T08:35:31.708Z,99.30
2023-08-19T08:40:33.892Z,99.90
2023-08-19T08:45:38.204Z,99.90
2023-08-19T08:50:40.241Z,99.90
2023-08-19T08:55:42.191Z,99.90
2023-08-19T09:00:49.493Z,99.90
2023-08-19T09:05:54.690Z,99.90
2023-08-19T09:10:57.219Z,99.60
2023-08-19T09:16:01.529Z,98.90
2023-08-19T09:21:04.339Z,98.00
2023-08-19T09:26:06.700Z,99.60
2023-08-19T09:31:31.865Z,97.50
2023-08-19T09:36:34.194Z,96.20
2023-08-19T09:41:37.813Z,96.70
2023-08-19T09:46:43.712Z,96.90
2023-08-19T09:51:55.588Z,97.70
2023-08-19T09:56:59.265Z,96.40
2023-08-19T10:02:02.876Z,96.00
2023-08-19T10:07:07.184Z,96.20
2023-08-19T10:12:11.168Z,94.90
2023-08-19T10:17:15.488Z,95.50
2023-08-19T10:22:19.925Z,94.50
2023-08-19T10:27:22.245Z,94.90
2023-08-19T10:32:30.389Z,93.20
2023-08-19T10:37:32.565Z,94.90
2023-08-19T10:42:35.279Z,92.70
2023-08-19T10:47:42.419Z,94.00
2023-08-19T10:53:00.228Z,91.80
2023-08-19T10:58:05.476Z,94.40
2023-08-19T11:03:11.311Z,93.10
2023-08-19T11:08:13.749Z,92.00
2023-08-19T11:13:16.625Z,92.10
2023-08-19T11:18:22.995Z,92.00
2023-08-19T11:23:28.708Z,92.30
2023-08-19T11:28:30.553Z,92.70
2023-08-19T11:33:35.071Z,91.20
2023-08-19T11:38:36.824Z,92.00
2023-08-19T11:43:46.506Z,88.30
2023-08-19T11:48:50.528Z,90.90
2023-08-19T11:53:55.621Z,88.90
2023-08-19T11:58:58.050Z,91.70
2023-08-19T12:04:01.725Z,91.90
2023-08-19T12:09:04.052Z,90.00
2023-08-19T12:14:06.908Z,92.70
2023-08-19T12:19:10.059Z,91.30
2023-08-19T12:24:12.113Z,90.60
2023-08-19T12:29:14.266Z,93.50
2023-08-19T12:34:17.960Z,89.80
2023-08-19T12:39:20.225Z,92.90
2023-08-19T12:44:22.640Z,91.80
2023-08-19T12:49:26.033Z,91.00
2023-08-19T12:54:28.358Z,87.10
2023-08-19T12:59:30.251Z,83.00
2023-08-19T13:04:36.371Z,89.00
2023-08-19T13:09:39.375Z,86.30
2023-08-19T13:14:41.190Z,83.80
2023-08-19T13:19:44.445Z,81.60
2023-08-19T13:24:46.969Z,86.00
2023-08-19T13:29:49.441Z,84.70
2023-08-19T13:34:53.131Z,75.80
2023-08-19T13:39:55.278Z,78.60
2023-08-19T13:44:57.400Z,78.40
2023-08-19T13:50:00.665Z,79.70
2023-08-19T13:55:04.023Z,76.30
2023-08-19T14:00:12.031Z,79.40
2023-08-19T14:05:17.775Z,80.50
2023-08-19T14:10:21.360Z,72.60
2023-08-19T14:15:23.753Z,77.20
2023-08-19T14:20:27.850Z,75.10
2023-08-19T14:25:29.724Z,68.40
2023-08-19T14:30:31.707Z,75.90
2023-08-19T14:35:34.906Z,72.80
2023-08-19T14:40:36.554Z,73.20
2023-08-19T14:45:38.596Z,71.20
2023-08-19T14:50:42.161Z,73.50
2023-08-19T14:55:44.286Z,72.30
2023-08-19T15:00:46.628Z,74.40
2023-08-19T15:05:49.829Z,71.80
2023-08-19T15:10:51.760Z,75.00
2023-08-19T15:15:55.242Z,76.00
2023-08-19T15:20:58.796Z,73.60
2023-08-19T15:26:01.284Z,75.50
2023-08-19T15:31:03.184Z,75.10
2023-08-19T15:36:06.878Z,70.30
2023-08-19T15:41:08.738Z,77.50
2023-08-19T15:46:10.709Z,77.20
2023-08-19T15:51:14.153Z,75.60
2023-08-19T15:56:16.055Z,77.20
2023-08-19T16:01:17.999Z,77.20
2023-08-19T16:06:21.535Z,76.60
2023-08-19T16:11:23.643Z,80.00
2023-08-19T16:16:25.479Z,80.10
2023-08-19T16:21:28.888Z,79.90
2023-08-19T16:26:31.264Z,82.80
2023-08-19T16:31:33.541Z,81.50
2023-08-19T16:36:36.858Z,82.30
2023-08-19T16:41:39.086Z,75.20
2023-08-19T16:46:41.079Z,77.70
2023-08-19T16:51:45.767Z,80.30
2023-08-19T16:56:47.540Z,81.80
2023-08-19T17:01:49.509Z,79.30
2023-08-19T17:06:53.142Z,81.70
2023-08-19T17:11:54.817Z,82.80
2023-08-19T17:16:56.674Z,85.10
2023-08-19T17:22:00.144Z,83.50
2023-08-19T17:27:01.971Z,85.90
2023-08-19T17:32:04.632Z,89.40
2023-08-19T17:37:08.114Z,91.10
2023-08-19T17:42:09.987Z,90.60
2023-08-19T17:47:12.443Z,91.80
2023-08-19T17:52:16.363Z,92.30
2023-08-19T17:57:19.198Z,93.80
2023-08-19T18:02:21.767Z,94.20
2023-08-19T18:07:26.011Z,97.70
2023-08-19T18:12:28.543Z,99.00
2023-08-19T18:17:31.570Z,98.50
2023-08-19T18:22:35.510Z,99.60
2023-08-19T18:27:40.170Z,99.20
2023-08-19T18:32:42.619Z,99.00
2023-08-19T18:37:46.063Z,99.40
2023-08-19T18:42:48.852Z,99.90
2023-08-19T18:48:06.706Z,99.90
2023-08-19T18:53:12.065Z,99.90
2023-08-19T18:58:15.391Z,99.90
2023-08-19T19:03:19.904Z,99.90
2023-08-19T19:08:25.705Z,99.90
2023-08-19T19:13:30.130Z,99.90
2023-08-19T19:18:36.438Z,99.90
2023-08-19T19:23:42.864Z,99.90
2023-08-19T19:28:47.633Z,99.90
2023-08-19T19:33:51.874Z,99.90
2023-08-19T19:38:59.220Z,99.90
2023-08-19T19:44:03.841Z,99.90
2023-08-19T19:49:08.386Z,99.90
2023-08-19T19:54:14.461Z,99.90
2023-08-19T19:59:20.151Z,99.90
2023-08-19T20:04:25.516Z,99.90
2023-08-19T20:09:31.872Z,99.90
2023-08-19T20:14:37.136Z,99.90
2023-08-19T20:19:42.340Z,99.90
2023-08-19T20:24:49.013Z,99.90
2023-08-19T20:29:53.740Z,99.90
2023-08-19T20:34:58.793Z,99.90
2023-08-19T20:40:05.220Z,99.90
2023-08-19T20:45:11.388Z,99.90
2023-08-19T20:50:15.898Z,99.90
2023-08-19T20:55:21.399Z,99.90
2023-08-19T21:00:23.789Z,99.90
2023-08-19T21:05:26.281Z,99.90
2023-08-19T21:10:30.799Z,99.90
2023-08-19T21:15:33.596Z,99.90
2023-08-19T21:20:44.340Z,99.90
2023-08-19T21:25:47.884Z,99.90
2023-08-19T21:30:56.654Z,99.90
2023-08-19T21:35:59.276Z,99.90
2023-08-19T21:41:03.726Z,99.90
2023-08-19T21:46:07.001Z,99.90
2023-08-19T21:51:10.605Z,99.90
2023-08-19T21:56:14.257Z,99.90
2023-08-19T22:06:19.750Z,99.90
2023-08-19T22:11:23.332Z,99.90
2023-08-19T22:16:25.188Z,99.90
2023-08-19T22:21:27.307Z,99.90
2023-08-19T22:26:30.438Z,99.90
2023-08-19T22:31:34.469Z,99.90
2023-08-19T22:36:38.598Z,99.90
2023-08-19T22:41:42.244Z,99.90
2023-08-19T22:46:44.369Z,99.90
2023-08-19T22:51:46.186Z,99.90
2023-08-19T22:56:49.563Z,99.90
2023-08-19T23:01:51.711Z,99.90
2023-08-19T23:06:53.964Z,99.90
2023-08-19T23:11:57.634Z,99.90
2023-08-19T23:16:59.759Z,99.90
2023-08-19T23:22:01.688Z,99.90
2023-08-19T23:27:05.204Z,99.90
2023-08-19T23:32:07.711Z,99.90
2023-08-19T23:37:10.157Z,99.90
2023-08-19T23:42:13.508Z,99.90
2023-08-19T23:47:16.182Z,99.90
2023-08-19T23:52:21.112Z,99.90
2023-08-19T23:57:25.056Z,99.90
